sensor_id;sensor_type;location;lat;lon;timestamp;P1;durP1;ratioP1;P2;durP2;ratioP2
2544;SDS011;36212;48.838;9.142;2023-02-28T00:01:38;4.55;;;3.92;;
2544;SDS011;36212;48.838;9.142;2023-02-28T00:04:10;4.50;;;4.15;;
2544;SDS011;36212;48.838;9.142;2023-02-28T00:06:43;4.43;;;4.03;;
2544;SDS011;36212;48.838;9.142;2023-02-28T00:09:15;4.40;;;3.83;;
2544;SDS011;36212;48.838;9.142;2023-02-28T00:11:47;5.00;;;4.55;;
2544;SDS011;36212;48.838;9.142;2023-02-28T00:14:19;4.40;;;4.10;;
2544;SDS011;36212;48.838;9.142;2023-02-28T00:16:52;4.30;;;3.85;;
2544;SDS011;36212;48.838;9.142;2023-02-28T00:19:24;7.57;;;4.05;;
2544;SDS011;36212;48.838;9.142;2023-02-28T00:21:56;6.18;;;4.90;;
2544;SDS011;36212;48.838;9.142;2023-02-28T00:24:29;4.05;;;3.75;;
2544;SDS011;36212;48.838;9.142;2023-02-28T00:27:01;5.40;;;4.63;;
2544;SDS011;36212;48.838;9.142;2023-02-28T00:29:34;7.13;;;4.90;;
2544;SDS011;36212;48.838;9.142;2023-02-28T00:32:06;4.72;;;4.32;;
2544;SDS011;36212;48.838;9.142;2023-02-28T00:34:38;4.25;;;3.85;;
2544;SDS011;36212;48.838;9.142;2023-02-28T00:37:11;4.38;;;4.07;;
2544;SDS011;36212;48.838;9.142;2023-02-28T00:39:45;4.70;;;4.30;;
2544;SDS011;36212;48.838;9.142;2023-02-28T00:42:18;5.15;;;4.75;;
2544;SDS011;36212;48.838;9.142;2023-02-28T00:44:50;4.45;;;4.15;;
2544;SDS011;36212;48.838;9.142;2023-02-28T00:47:35;8.23;;;3.78;;
2544;SDS011;36212;48.838;9.142;2023-02-28T00:50:08;5.78;;;5.28;;
2544;SDS011;36212;48.838;9.142;2023-02-28T00:52:41;5.05;;;4.70;;
2544;SDS011;36212;48.838;9.142;2023-02-28T00:55:14;7.93;;;4.60;;
2544;SDS011;36212;48.838;9.142;2023-02-28T00:57:46;4.25;;;3.95;;
2544;SDS011;36212;48.838;9.142;2023-02-28T01:00:18;4.68;;;4.28;;
2544;SDS011;36212;48.838;9.142;2023-02-28T01:02:51;4.70;;;4.30;;
2544;SDS011;36212;48.838;9.142;2023-02-28T01:05:23;4.28;;;4.00;;
2544;SDS011;36212;48.838;9.142;2023-02-28T01:07:55;4.45;;;4.15;;
2544;SDS011;36212;48.838;9.142;2023-02-28T01:10:27;5.60;;;5.18;;
2544;SDS011;36212;48.838;9.142;2023-02-28T01:13:03;5.57;;;5.07;;
2544;SDS011;36212;48.838;9.142;2023-02-28T01:15:36;5.38;;;4.85;;
2544;SDS011;36212;48.838;9.142;2023-02-28T01:18:11;5.85;;;5.35;;
2544;SDS011;36212;48.838;9.142;2023-02-28T01:20:43;5.05;;;4.55;;
2544;SDS011;36212;48.838;9.142;2023-02-28T01:23:19;4.82;;;4.47;;
2544;SDS011;36212;48.838;9.142;2023-02-28T01:25:53;7.55;;;5.10;;
2544;SDS011;36212;48.838;9.142;2023-02-28T01:28:26;5.30;;;4.90;;
2544;SDS011;36212;48.838;9.142;2023-02-28T01:33:37;4.85;;;4.45;;
2544;SDS011;36212;48.838;9.142;2023-02-28T01:36:11;5.40;;;5.00;;
2544;SDS011;36212;48.838;9.142;2023-02-28T01:38:47;5.30;;;4.90;;
2544;SDS011;36212;48.838;9.142;2023-02-28T01:41:24;7.03;;;5.85;;
2544;SDS011;36212;48.838;9.142;2023-02-28T01:46:55;4.70;;;4.40;;
2544;SDS011;36212;48.838;9.142;2023-02-28T01:49:27;7.88;;;5.20;;
2544;SDS011;36212;48.838;9.142;2023-02-28T01:51:59;5.63;;;5.13;;
2544;SDS011;36212;48.838;9.142;2023-02-28T01:54:33;6.28;;;5.68;;
2544;SDS011;36212;48.838;9.142;2023-02-28T01:57:14;5.05;;;4.78;;
2544;SDS011;36212;48.838;9.142;2023-02-28T01:59:54;5.13;;;4.72;;
2544;SDS011;36212;48.838;9.142;2023-02-28T02:02:38;6.10;;;5.60;;
2544;SDS011;36212;48.838;9.142;2023-02-28T02:05:20;5.80;;;5.40;;
2544;SDS011;36212;48.838;9.142;2023-02-28T02:08:06;6.07;;;5.47;;
2544;SDS011;36212;48.838;9.142;2023-02-28T02:10:45;5.53;;;5.10;;
2544;SDS011;36212;48.838;9.142;2023-02-28T02:17:08;5.40;;;4.95;;
2544;SDS011;36212;48.838;9.142;2023-02-28T02:23:02;6.68;;;6.07;;
2544;SDS011;36212;48.838;9.142;2023-02-28T02:29:16;6.00;;;5.50;;
2544;SDS011;36212;48.838;9.142;2023-02-28T02:35:25;6.63;;;5.97;;
2544;SDS011;36212;48.838;9.142;2023-02-28T02:38:21;6.25;;;5.65;;
2544;SDS011;36212;48.838;9.142;2023-02-28T02:41:55;5.35;;;4.85;;
2544;SDS011;36212;48.838;9.142;2023-02-28T02:44:28;6.03;;;5.53;;
2544;SDS011;36212;48.838;9.142;2023-02-28T02:47:14;5.97;;;5.57;;
2544;SDS011;36212;48.838;9.142;2023-02-28T02:49:53;6.47;;;5.38;;
2544;SDS011;36212;48.838;9.142;2023-02-28T02:52:39;5.38;;;4.97;;
2544;SDS011;36212;48.838;9.142;2023-02-28T02:55:21;8.85;;;5.80;;
2544;SDS011;36212;48.838;9.142;2023-02-28T02:57:57;5.85;;;5.45;;
2544;SDS011;36212;48.838;9.142;2023-02-28T03:00:37;6.68;;;5.90;;
2544;SDS011;36212;48.838;9.142;2023-02-28T03:03:18;6.07;;;5.57;;
2544;SDS011;36212;48.838;9.142;2023-02-28T03:06:01;5.97;;;5.50;;
2544;SDS011;36212;48.838;9.142;2023-02-28T03:08:36;5.50;;;5.10;;
2544;SDS011;36212;48.838;9.142;2023-02-28T03:11:13;6.10;;;5.55;;
2544;SDS011;36212;48.838;9.142;2023-02-28T03:23:35;5.90;;;5.40;;
2544;SDS011;36212;48.838;9.142;2023-02-28T03:26:22;6.47;;;5.82;;
2544;SDS011;36212;48.838;9.142;2023-02-28T03:29:16;6.50;;;5.63;;
2544;SDS011;36212;48.838;9.142;2023-02-28T03:37:50;6.07;;;5.57;;
2544;SDS011;36212;48.838;9.142;2023-02-28T03:40:33;7.03;;;6.53;;
2544;SDS011;36212;48.838;9.142;2023-02-28T03:43:15;6.13;;;5.63;;
2544;SDS011;36212;48.838;9.142;2023-02-28T03:45:58;7.60;;;6.93;;
2544;SDS011;36212;48.838;9.142;2023-02-28T03:52:12;6.03;;;5.53;;
2544;SDS011;36212;48.838;9.142;2023-02-28T03:54:53;6.63;;;6.03;;
2544;SDS011;36212;48.838;9.142;2023-02-28T04:00:55;6.55;;;5.75;;
2544;SDS011;36212;48.838;9.142;2023-02-28T04:03:46;8.05;;;5.57;;
2544;SDS011;36212;48.838;9.142;2023-02-28T04:06:20;6.45;;;5.95;;
2544;SDS011;36212;48.838;9.142;2023-02-28T04:08:54;6.75;;;6.15;;
2544;SDS011;36212;48.838;9.142;2023-02-28T04:11:34;6.75;;;6.15;;
2544;SDS011;36212;48.838;9.142;2023-02-28T04:14:33;6.75;;;6.03;;
2544;SDS011;36212;48.838;9.142;2023-02-28T04:17:05;6.88;;;6.20;;
2544;SDS011;36212;48.838;9.142;2023-02-28T04:19:37;7.90;;;7.10;;
2544;SDS011;36212;48.838;9.142;2023-02-28T04:22:09;7.22;;;6.53;;
2544;SDS011;36212;48.838;9.142;2023-02-28T04:24:42;6.70;;;6.10;;
2544;SDS011;36212;48.838;9.142;2023-02-28T04:27:14;7.95;;;6.20;;
2544;SDS011;36212;48.838;9.142;2023-02-28T04:29:47;6.80;;;6.20;;
2544;SDS011;36212;48.838;9.142;2023-02-28T04:32:19;7.35;;;6.65;;
2544;SDS011;36212;48.838;9.142;2023-02-28T04:34:51;6.93;;;6.38;;
2544;SDS011;36212;48.838;9.142;2023-02-28T04:37:23;6.80;;;6.20;;
2544;SDS011;36212;48.838;9.142;2023-02-28T04:40:00;7.00;;;6.30;;
2544;SDS011;36212;48.838;9.142;2023-02-28T04:42:33;6.85;;;6.15;;
2544;SDS011;36212;48.838;9.142;2023-02-28T04:45:07;6.13;;;5.63;;
2544;SDS011;36212;48.838;9.142;2023-02-28T04:47:41;6.72;;;6.22;;
2544;SDS011;36212;48.838;9.142;2023-02-28T04:50:13;6.57;;;6.07;;
2544;SDS011;36212;48.838;9.142;2023-02-28T04:52:48;8.15;;;6.55;;
2544;SDS011;36212;48.838;9.142;2023-02-28T04:55:20;7.40;;;6.55;;
2544;SDS011;36212;48.838;9.142;2023-02-28T04:57:52;7.72;;;6.82;;
2544;SDS011;36212;48.838;9.142;2023-02-28T05:00:24;10.93;;;6.50;;
2544;SDS011;36212;48.838;9.142;2023-02-28T05:02:56;6.68;;;5.85;;
2544;SDS011;36212;48.838;9.142;2023-02-28T05:05:28;6.97;;;6.25;;
2544;SDS011;36212;48.838;9.142;2023-02-28T05:08:00;8.13;;;6.70;;
2544;SDS011;36212;48.838;9.142;2023-02-28T05:10:32;7.90;;;7.20;;
2544;SDS011;36212;48.838;9.142;2023-02-28T05:13:05;7.10;;;6.50;;
2544;SDS011;36212;48.838;9.142;2023-02-28T05:15:41;6.60;;;6.00;;
2544;SDS011;36212;48.838;9.142;2023-02-28T05:18:13;7.03;;;6.35;;
2544;SDS011;36212;48.838;9.142;2023-02-28T05:20:45;7.90;;;7.07;;
2544;SDS011;36212;48.838;9.142;2023-02-28T05:23:17;6.97;;;6.30;;
2544;SDS011;36212;48.838;9.142;2023-02-28T05:25:52;8.05;;;7.35;;
2544;SDS011;36212;48.838;9.142;2023-02-28T05:28:44;8.90;;;7.63;;
2544;SDS011;36212;48.838;9.142;2023-02-28T05:31:16;8.10;;;7.30;;
2544;SDS011;36212;48.838;9.142;2023-02-28T05:33:48;8.55;;;6.55;;
2544;SDS011;36212;48.838;9.142;2023-02-28T05:36:21;10.25;;;7.35;;
2544;SDS011;36212;48.838;9.142;2023-02-28T05:38:54;8.10;;;6.70;;
2544;SDS011;36212;48.838;9.142;2023-02-28T05:41:26;6.55;;;6.00;;
2544;SDS011;36212;48.838;9.142;2023-02-28T05:43:59;10.63;;;7.82;;
2544;SDS011;36212;48.838;9.142;2023-02-28T05:46:32;8.07;;;6.95;;
2544;SDS011;36212;48.838;9.142;2023-02-28T05:49:04;7.03;;;6.32;;
2544;SDS011;36212;48.838;9.142;2023-02-28T05:51:36;8.57;;;7.85;;
2544;SDS011;36212;48.838;9.142;2023-02-28T05:54:11;7.50;;;6.85;;
2544;SDS011;36212;48.838;9.142;2023-02-28T05:56:44;8.05;;;6.57;;
2544;SDS011;36212;48.838;9.142;2023-02-28T05:59:17;7.60;;;6.90;;
2544;SDS011;36212;48.838;9.142;2023-02-28T06:01:49;8.35;;;6.80;;
2544;SDS011;36212;48.838;9.142;2023-02-28T06:04:23;9.80;;;7.20;;
2544;SDS011;36212;48.838;9.142;2023-02-28T06:07:02;8.63;;;6.65;;
2544;SDS011;36212;48.838;9.142;2023-02-28T06:09:34;7.38;;;6.75;;
2544;SDS011;36212;48.838;9.142;2023-02-28T06:12:07;9.55;;;7.05;;
2544;SDS011;36212;48.838;9.142;2023-02-28T06:14:41;11.13;;;6.13;;
2544;SDS011;36212;48.838;9.142;2023-02-28T06:17:13;8.45;;;7.72;;
2544;SDS011;36212;48.838;9.142;2023-02-28T06:19:45;10.93;;;7.22;;
2544;SDS011;36212;48.838;9.142;2023-02-28T06:22:18;7.80;;;7.07;;
2544;SDS011;36212;48.838;9.142;2023-02-28T06:24:50;7.75;;;6.72;;
2544;SDS011;36212;48.838;9.142;2023-02-28T06:27:23;7.15;;;5.75;;
2544;SDS011;36212;48.838;9.142;2023-02-28T06:29:55;8.45;;;7.65;;
2544;SDS011;36212;48.838;9.142;2023-02-28T06:32:27;8.55;;;7.60;;
2544;SDS011;36212;48.838;9.142;2023-02-28T06:34:59;8.13;;;7.15;;
2544;SDS011;36212;48.838;9.142;2023-02-28T06:37:32;12.55;;;8.18;;
2544;SDS011;36212;48.838;9.142;2023-02-28T06:40:04;8.70;;;7.80;;
2544;SDS011;36212;48.838;9.142;2023-02-28T06:42:39;8.50;;;7.80;;
2544;SDS011;36212;48.838;9.142;2023-02-28T06:45:11;7.82;;;6.82;;
2544;SDS011;36212;48.838;9.142;2023-02-28T06:47:43;8.57;;;7.63;;
2544;SDS011;36212;48.838;9.142;2023-02-28T06:50:22;8.77;;;7.65;;
2544;SDS011;36212;48.838;9.142;2023-02-28T06:52:54;7.07;;;6.47;;
2544;SDS011;36212;48.838;9.142;2023-02-28T06:55:34;10.05;;;7.55;;
2544;SDS011;36212;48.838;9.142;2023-02-28T06:58:09;8.60;;;7.55;;
2544;SDS011;36212;48.838;9.142;2023-02-28T07:00:51;8.98;;;8.05;;
2544;SDS011;36212;48.838;9.142;2023-02-28T07:03:23;8.52;;;7.07;;
2544;SDS011;36212;48.838;9.142;2023-02-28T07:05:56;8.15;;;7.35;;
2544;SDS011;36212;48.838;9.142;2023-02-28T07:08:28;8.02;;;7.28;;
2544;SDS011;36212;48.838;9.142;2023-02-28T07:11:16;9.10;;;7.60;;
2544;SDS011;36212;48.838;9.142;2023-02-28T07:13:49;8.52;;;7.03;;
2544;SDS011;36212;48.838;9.142;2023-02-28T07:16:24;8.63;;;7.65;;
2544;SDS011;36212;48.838;9.142;2023-02-28T07:18:56;9.02;;;7.75;;
2544;SDS011;36212;48.838;9.142;2023-02-28T07:21:28;9.70;;;8.80;;
2544;SDS011;36212;48.838;9.142;2023-02-28T07:24:01;8.57;;;7.40;;
2544;SDS011;36212;48.838;9.142;2023-02-28T07:26:33;8.02;;;7.20;;
2544;SDS011;36212;48.838;9.142;2023-02-28T07:29:06;8.98;;;6.53;;
2544;SDS011;36212;48.838;9.142;2023-02-28T07:31:38;10.35;;;8.70;;
2544;SDS011;36212;48.838;9.142;2023-02-28T07:34:10;10.55;;;7.97;;
2544;SDS011;36212;48.838;9.142;2023-02-28T07:36:43;9.73;;;8.77;;
2544;SDS011;36212;48.838;9.142;2023-02-28T07:39:15;9.52;;;6.55;;
2544;SDS011;36212;48.838;9.142;2023-02-28T07:41:47;8.85;;;7.95;;
2544;SDS011;36212;48.838;9.142;2023-02-28T07:44:19;9.95;;;8.27;;
2544;SDS011;36212;48.838;9.142;2023-02-28T07:46:52;10.23;;;8.05;;
2544;SDS011;36212;48.838;9.142;2023-02-28T07:49:24;12.88;;;8.40;;
2544;SDS011;36212;48.838;9.142;2023-02-28T07:51:56;8.98;;;8.07;;
2544;SDS011;36212;48.838;9.142;2023-02-28T07:54:28;8.60;;;7.80;;
2544;SDS011;36212;48.838;9.142;2023-02-28T07:57:02;8.80;;;7.90;;
2544;SDS011;36212;48.838;9.142;2023-02-28T07:59:34;8.63;;;7.82;;
2544;SDS011;36212;48.838;9.142;2023-02-28T08:02:06;9.65;;;8.65;;
2544;SDS011;36212;48.838;9.142;2023-02-28T08:04:43;10.68;;;7.55;;
2544;SDS011;36212;48.838;9.142;2023-02-28T08:07:16;9.63;;;8.07;;
2544;SDS011;36212;48.838;9.142;2023-02-28T08:09:49;9.02;;;7.85;;
2544;SDS011;36212;48.838;9.142;2023-02-28T08:12:21;9.50;;;8.07;;
2544;SDS011;36212;48.838;9.142;2023-02-28T08:14:54;11.23;;;9.10;;
2544;SDS011;36212;48.838;9.142;2023-02-28T08:17:26;9.90;;;8.45;;
2544;SDS011;36212;48.838;9.142;2023-02-28T08:19:58;10.20;;;9.15;;
2544;SDS011;36212;48.838;9.142;2023-02-28T08:22:30;10.35;;;9.25;;
2544;SDS011;36212;48.838;9.142;2023-02-28T08:25:02;10.18;;;8.43;;
2544;SDS011;36212;48.838;9.142;2023-02-28T08:27:37;9.43;;;8.35;;
2544;SDS011;36212;48.838;9.142;2023-02-28T08:30:10;8.75;;;7.85;;
2544;SDS011;36212;48.838;9.142;2023-02-28T08:32:44;10.27;;;8.40;;
2544;SDS011;36212;48.838;9.142;2023-02-28T08:35:17;11.75;;;8.65;;
2544;SDS011;36212;48.838;9.142;2023-02-28T08:37:49;10.75;;;8.65;;
2544;SDS011;36212;48.838;9.142;2023-02-28T08:40:21;12.05;;;9.55;;
2544;SDS011;36212;48.838;9.142;2023-02-28T08:42:54;10.50;;;8.82;;
2544;SDS011;36212;48.838;9.142;2023-02-28T08:45:26;8.75;;;7.85;;
2544;SDS011;36212;48.838;9.142;2023-02-28T08:47:58;10.30;;;9.27;;
2544;SDS011;36212;48.838;9.142;2023-02-28T08:50:30;10.15;;;9.15;;
2544;SDS011;36212;48.838;9.142;2023-02-28T08:53:02;9.13;;;8.23;;
2544;SDS011;36212;48.838;9.142;2023-02-28T08:55:35;10.50;;;9.25;;
2544;SDS011;36212;48.838;9.142;2023-02-28T08:58:07;14.98;;;9.45;;
2544;SDS011;36212;48.838;9.142;2023-02-28T09:00:39;10.50;;;9.10;;
2544;SDS011;36212;48.838;9.142;2023-02-28T09:03:12;12.77;;;9.07;;
2544;SDS011;36212;48.838;9.142;2023-02-28T09:05:54;11.38;;;9.63;;
2544;SDS011;36212;48.838;9.142;2023-02-28T09:08:31;10.80;;;9.60;;
2544;SDS011;36212;48.838;9.142;2023-02-28T09:11:03;10.55;;;9.30;;
2544;SDS011;36212;48.838;9.142;2023-02-28T09:13:36;10.48;;;9.38;;
2544;SDS011;36212;48.838;9.142;2023-02-28T09:16:10;10.98;;;9.77;;
2544;SDS011;36212;48.838;9.142;2023-02-28T09:18:45;9.93;;;8.43;;
2544;SDS011;36212;48.838;9.142;2023-02-28T09:21:18;11.88;;;9.35;;
2544;SDS011;36212;48.838;9.142;2023-02-28T09:23:51;12.23;;;9.63;;
2544;SDS011;36212;48.838;9.142;2023-02-28T09:26:25;10.90;;;9.45;;
2544;SDS011;36212;48.838;9.142;2023-02-28T09:29:09;10.73;;;9.20;;
2544;SDS011;36212;48.838;9.142;2023-02-28T09:31:42;10.55;;;9.55;;
2544;SDS011;36212;48.838;9.142;2023-02-28T09:34:15;11.32;;;9.77;;
2544;SDS011;36212;48.838;9.142;2023-02-28T09:36:49;13.13;;;9.60;;
2544;SDS011;36212;48.838;9.142;2023-02-28T09:39:26;13.27;;;9.90;;
2544;SDS011;36212;48.838;9.142;2023-02-28T09:41:59;11.35;;;10.23;;
2544;SDS011;36212;48.838;9.142;2023-02-28T09:50:18;11.95;;;10.73;;
2544;SDS011;36212;48.838;9.142;2023-02-28T09:53:04;9.23;;;8.13;;
2544;SDS011;36212;48.838;9.142;2023-02-28T09:55:57;10.75;;;8.40;;
2544;SDS011;36212;48.838;9.142;2023-02-28T10:05:16;12.52;;;9.90;;
2544;SDS011;36212;48.838;9.142;2023-02-28T10:08:00;11.32;;;10.18;;
2544;SDS011;36212;48.838;9.142;2023-02-28T10:10:56;12.15;;;10.25;;
2544;SDS011;36212;48.838;9.142;2023-02-28T10:16:41;14.98;;;9.25;;
2544;SDS011;36212;48.838;9.142;2023-02-28T10:19:27;13.27;;;9.70;;
2544;SDS011;36212;48.838;9.142;2023-02-28T10:22:14;12.00;;;10.10;;
2544;SDS011;36212;48.838;9.142;2023-02-28T10:24:55;11.55;;;10.05;;
2544;SDS011;36212;48.838;9.142;2023-02-28T10:27:59;10.30;;;9.20;;
2544;SDS011;36212;48.838;9.142;2023-02-28T10:30:42;12.32;;;10.32;;
2544;SDS011;36212;48.838;9.142;2023-02-28T10:33:30;9.32;;;8.43;;
2544;SDS011;36212;48.838;9.142;2023-02-28T10:36:08;14.45;;;11.65;;
2544;SDS011;36212;48.838;9.142;2023-02-28T10:38:49;12.30;;;10.30;;
2544;SDS011;36212;48.838;9.142;2023-02-28T10:41:31;12.40;;;10.85;;
2544;SDS011;36212;48.838;9.142;2023-02-28T10:44:22;11.85;;;10.48;;
2544;SDS011;36212;48.838;9.142;2023-02-28T10:46:55;12.65;;;11.40;;
2544;SDS011;36212;48.838;9.142;2023-02-28T10:49:27;11.63;;;10.23;;
2544;SDS011;36212;48.838;9.142;2023-02-28T10:52:01;12.43;;;10.30;;
2544;SDS011;36212;48.838;9.142;2023-02-28T10:54:34;13.27;;;10.25;;
2544;SDS011;36212;48.838;9.142;2023-02-28T10:57:16;12.27;;;10.68;;
2544;SDS011;36212;48.838;9.142;2023-02-28T11:00:05;11.10;;;10.00;;
2544;SDS011;36212;48.838;9.142;2023-02-28T11:02:53;11.68;;;10.45;;
2544;SDS011;36212;48.838;9.142;2023-02-28T11:05:39;12.45;;;10.48;;
2544;SDS011;36212;48.838;9.142;2023-02-28T11:08:16;10.88;;;9.85;;
2544;SDS011;36212;48.838;9.142;2023-02-28T11:10:54;12.25;;;11.05;;
2544;SDS011;36212;48.838;9.142;2023-02-28T11:13:34;11.10;;;10.00;;
2544;SDS011;36212;48.838;9.142;2023-02-28T11:16:10;12.07;;;10.88;;
2544;SDS011;36212;48.838;9.142;2023-02-28T11:18:53;10.73;;;9.75;;
2544;SDS011;36212;48.838;9.142;2023-02-28T11:21:28;10.95;;;9.95;;
2544;SDS011;36212;48.838;9.142;2023-02-28T11:24:14;11.75;;;10.60;;
2544;SDS011;36212;48.838;9.142;2023-02-28T11:27:05;10.52;;;9.45;;
2544;SDS011;36212;48.838;9.142;2023-02-28T11:29:57;11.32;;;10.23;;
2544;SDS011;36212;48.838;9.142;2023-02-28T11:32:30;11.38;;;10.40;;
2544;SDS011;36212;48.838;9.142;2023-02-28T11:37:47;12.23;;;10.95;;
2544;SDS011;36212;48.838;9.142;2023-02-28T11:49:30;11.48;;;10.30;;
2544;SDS011;36212;48.838;9.142;2023-02-28T11:52:55;11.43;;;10.20;;
2544;SDS011;36212;48.838;9.142;2023-02-28T11:55:52;10.57;;;9.63;;
2544;SDS011;36212;48.838;9.142;2023-02-28T12:05:12;11.50;;;10.40;;
2544;SDS011;36212;48.838;9.142;2023-02-28T12:21:19;10.77;;;9.73;;
2544;SDS011;36212;48.838;9.142;2023-02-28T12:25:02;11.52;;;10.23;;
2544;SDS011;36212;48.838;9.142;2023-02-28T12:27:52;11.23;;;10.10;;
2544;SDS011;36212;48.838;9.142;2023-02-28T12:30:32;15.35;;;12.40;;
2544;SDS011;36212;48.838;9.142;2023-02-28T12:33:13;10.90;;;10.00;;
2544;SDS011;36212;48.838;9.142;2023-02-28T12:35:56;11.40;;;10.27;;
2544;SDS011;36212;48.838;9.142;2023-02-28T12:38:43;11.15;;;10.05;;
2544;SDS011;36212;48.838;9.142;2023-02-28T12:44:59;11.63;;;9.90;;
2544;SDS011;36212;48.838;9.142;2023-02-28T12:47:46;10.55;;;9.65;;
2544;SDS011;36212;48.838;9.142;2023-02-28T12:50:30;11.73;;;9.82;;
2544;SDS011;36212;48.838;9.142;2023-02-28T12:59:30;10.65;;;9.65;;
2544;SDS011;36212;48.838;9.142;2023-02-28T13:05:46;10.75;;;9.85;;
2544;SDS011;36212;48.838;9.142;2023-02-28T13:11:45;10.77;;;9.68;;
2544;SDS011;36212;48.838;9.142;2023-02-28T13:14:37;11.35;;;9.70;;
2544;SDS011;36212;48.838;9.142;2023-02-28T13:17:11;10.27;;;9.32;;
2544;SDS011;36212;48.838;9.142;2023-02-28T13:31:30;9.57;;;8.73;;
2544;SDS011;36212;48.838;9.142;2023-02-28T13:34:25;10.70;;;9.60;;
2544;SDS011;36212;48.838;9.142;2023-02-28T13:40:45;9.02;;;8.25;;
2544;SDS011;36212;48.838;9.142;2023-02-28T13:43:08;10.15;;;9.23;;
2544;SDS011;36212;48.838;9.142;2023-02-28T13:45:44;9.40;;;8.60;;
2544;SDS011;36212;48.838;9.142;2023-02-28T13:48:43;9.35;;;8.65;;
2544;SDS011;36212;48.838;9.142;2023-02-28T13:51:27;10.25;;;9.35;;
2544;SDS011;36212;48.838;9.142;2023-02-28T14:06:57;10.13;;;9.23;;
2544;SDS011;36212;48.838;9.142;2023-02-28T14:15:46;10.23;;;8.23;;
2544;SDS011;36212;48.838;9.142;2023-02-28T14:18:40;9.82;;;8.93;;
2544;SDS011;36212;48.838;9.142;2023-02-28T14:21:29;9.60;;;8.77;;
2544;SDS011;36212;48.838;9.142;2023-02-28T14:24:42;9.40;;;8.60;;
2544;SDS011;36212;48.838;9.142;2023-02-28T14:27:58;9.70;;;8.70;;
2544;SDS011;36212;48.838;9.142;2023-02-28T14:37:08;10.18;;;9.38;;
2544;SDS011;36212;48.838;9.142;2023-02-28T14:39:56;8.90;;;8.15;;
2544;SDS011;36212;48.838;9.142;2023-02-28T14:45:24;10.63;;;9.52;;
2544;SDS011;36212;48.838;9.142;2023-02-28T14:48:02;10.13;;;9.07;;
2544;SDS011;36212;48.838;9.142;2023-02-28T14:50:40;9.68;;;8.75;;
2544;SDS011;36212;48.838;9.142;2023-02-28T14:53:28;10.30;;;9.40;;
2544;SDS011;36212;48.838;9.142;2023-02-28T14:56:26;10.30;;;9.30;;
2544;SDS011;36212;48.838;9.142;2023-02-28T14:59:25;9.35;;;8.55;;
2544;SDS011;36212;48.838;9.142;2023-02-28T15:02:17;11.38;;;9.43;;
2544;SDS011;36212;48.838;9.142;2023-02-28T15:07:31;10.25;;;9.32;;
2544;SDS011;36212;48.838;9.142;2023-02-28T15:12:55;10.32;;;9.32;;
2544;SDS011;36212;48.838;9.142;2023-02-28T15:21:20;10.80;;;9.50;;
2544;SDS011;36212;48.838;9.142;2023-02-28T15:26:46;11.52;;;10.43;;
2544;SDS011;36212;48.838;9.142;2023-02-28T15:29:27;10.70;;;9.43;;
2544;SDS011;36212;48.838;9.142;2023-02-28T15:32:23;10.02;;;9.13;;
2544;SDS011;36212;48.838;9.142;2023-02-28T15:40:53;11.50;;;10.30;;
2544;SDS011;36212;48.838;9.142;2023-02-28T15:43:31;11.55;;;10.23;;
2544;SDS011;36212;48.838;9.142;2023-02-28T15:46:07;11.50;;;9.95;;
2544;SDS011;36212;48.838;9.142;2023-02-28T15:48:53;10.95;;;9.95;;
2544;SDS011;36212;48.838;9.142;2023-02-28T15:51:32;11.48;;;10.38;;
2544;SDS011;36212;48.838;9.142;2023-02-28T15:54:10;11.02;;;9.95;;
2544;SDS011;36212;48.838;9.142;2023-02-28T15:56:53;10.70;;;9.60;;
2544;SDS011;36212;48.838;9.142;2023-02-28T15:59:33;10.93;;;9.50;;
2544;SDS011;36212;48.838;9.142;2023-02-28T16:08:11;9.30;;;8.40;;
2544;SDS011;36212;48.838;9.142;2023-02-28T16:10:46;10.88;;;9.88;;
2544;SDS011;36212;48.838;9.142;2023-02-28T16:13:21;10.50;;;9.32;;
2544;SDS011;36212;48.838;9.142;2023-02-28T16:15:54;12.88;;;9.07;;
2544;SDS011;36212;48.838;9.142;2023-02-28T16:18:26;11.05;;;9.98;;
2544;SDS011;36212;48.838;9.142;2023-02-28T16:20:59;10.10;;;8.95;;
2544;SDS011;36212;48.838;9.142;2023-02-28T16:23:31;11.27;;;10.18;;
2544;SDS011;36212;48.838;9.142;2023-02-28T16:26:04;12.10;;;9.95;;
2544;SDS011;36212;48.838;9.142;2023-02-28T16:28:37;11.13;;;10.05;;
2544;SDS011;36212;48.838;9.142;2023-02-28T16:31:10;12.88;;;11.50;;
2544;SDS011;36212;48.838;9.142;2023-02-28T16:33:50;10.63;;;9.32;;
2544;SDS011;36212;48.838;9.142;2023-02-28T16:36:23;10.63;;;9.63;;
2544;SDS011;36212;48.838;9.142;2023-02-28T16:38:59;10.65;;;9.75;;
2544;SDS011;36212;48.838;9.142;2023-02-28T16:41:35;12.18;;;10.07;;
2544;SDS011;36212;48.838;9.142;2023-02-28T16:44:28;17.55;;;10.90;;
2544;SDS011;36212;48.838;9.142;2023-02-28T16:47:06;13.18;;;10.38;;
2544;SDS011;36212;48.838;9.142;2023-02-28T16:49:42;12.45;;;10.45;;
2544;SDS011;36212;48.838;9.142;2023-02-28T16:52:15;11.98;;;10.48;;
2544;SDS011;36212;48.838;9.142;2023-02-28T16:54:47;11.52;;;10.43;;
2544;SDS011;36212;48.838;9.142;2023-02-28T16:57:22;12.02;;;10.73;;
2544;SDS011;36212;48.838;9.142;2023-02-28T16:59:55;12.65;;;11.10;;
2544;SDS011;36212;48.838;9.142;2023-02-28T17:02:27;11.60;;;10.40;;
2544;SDS011;36212;48.838;9.142;2023-02-28T17:05:00;12.80;;;11.50;;
2544;SDS011;36212;48.838;9.142;2023-02-28T17:07:32;12.57;;;10.93;;
2544;SDS011;36212;48.838;9.142;2023-02-28T17:10:24;15.45;;;11.23;;
2544;SDS011;36212;48.838;9.142;2023-02-28T17:12:58;16.17;;;12.10;;
2544;SDS011;36212;48.838;9.142;2023-02-28T17:15:45;15.65;;;10.75;;
2544;SDS011;36212;48.838;9.142;2023-02-28T17:18:18;11.48;;;10.27;;
2544;SDS011;36212;48.838;9.142;2023-02-28T17:20:53;11.52;;;10.32;;
2544;SDS011;36212;48.838;9.142;2023-02-28T17:23:26;13.10;;;10.85;;
2544;SDS011;36212;48.838;9.142;2023-02-28T17:25:58;14.30;;;11.23;;
2544;SDS011;36212;48.838;9.142;2023-02-28T17:28:31;17.55;;;12.25;;
2544;SDS011;36212;48.838;9.142;2023-02-28T17:31:04;14.82;;;10.38;;
2544;SDS011;36212;48.838;9.142;2023-02-28T17:33:38;18.30;;;12.07;;
2544;SDS011;36212;48.838;9.142;2023-02-28T17:36:15;12.52;;;10.07;;
2544;SDS011;36212;48.838;9.142;2023-02-28T17:38:55;12.88;;;11.60;;
2544;SDS011;36212;48.838;9.142;2023-02-28T17:41:30;13.68;;;11.85;;
2544;SDS011;36212;48.838;9.142;2023-02-28T17:44:03;16.23;;;11.80;;
2544;SDS011;36212;48.838;9.142;2023-02-28T17:46:36;14.23;;;11.73;;
2544;SDS011;36212;48.838;9.142;2023-02-28T17:49:09;15.60;;;11.65;;
2544;SDS011;36212;48.838;9.142;2023-02-28T17:51:42;14.82;;;11.60;;
2544;SDS011;36212;48.838;9.142;2023-02-28T17:54:14;16.52;;;10.98;;
2544;SDS011;36212;48.838;9.142;2023-02-28T17:56:50;13.05;;;10.77;;
2544;SDS011;36212;48.838;9.142;2023-02-28T17:59:22;13.57;;;11.50;;
2544;SDS011;36212;48.838;9.142;2023-02-28T18:01:54;13.15;;;10.80;;
2544;SDS011;36212;48.838;9.142;2023-02-28T18:04:27;18.00;;;12.48;;
2544;SDS011;36212;48.838;9.142;2023-02-28T18:07:00;12.38;;;10.85;;
2544;SDS011;36212;48.838;9.142;2023-02-28T18:09:33;12.80;;;10.98;;
2544;SDS011;36212;48.838;9.142;2023-02-28T18:12:05;13.68;;;11.30;;
2544;SDS011;36212;48.838;9.142;2023-02-28T18:14:38;13.10;;;10.63;;
2544;SDS011;36212;48.838;9.142;2023-02-28T18:17:12;13.45;;;12.05;;
2544;SDS011;36212;48.838;9.142;2023-02-28T18:19:47;14.25;;;11.25;;
2544;SDS011;36212;48.838;9.142;2023-02-28T18:22:20;11.60;;;9.90;;
2544;SDS011;36212;48.838;9.142;2023-02-28T18:24:53;14.85;;;12.00;;
2544;SDS011;36212;48.838;9.142;2023-02-28T18:27:25;16.17;;;12.60;;
2544;SDS011;36212;48.838;9.142;2023-02-28T18:29:58;15.65;;;13.20;;
2544;SDS011;36212;48.838;9.142;2023-02-28T18:32:33;14.43;;;12.10;;
2544;SDS011;36212;48.838;9.142;2023-02-28T18:35:05;15.52;;;12.65;;
2544;SDS011;36212;48.838;9.142;2023-02-28T18:37:39;15.95;;;11.95;;
2544;SDS011;36212;48.838;9.142;2023-02-28T18:40:12;12.68;;;11.38;;
2544;SDS011;36212;48.838;9.142;2023-02-28T18:42:47;14.40;;;11.50;;
2544;SDS011;36212;48.838;9.142;2023-02-28T18:45:22;12.32;;;11.02;;
2544;SDS011;36212;48.838;9.142;2023-02-28T18:47:55;18.02;;;12.18;;